Time;durP1;ratioP1;P1;durP2;ratioP2;P2;SDS_P1;SDS_P2;PMS_P1;PMS_P2;Temp;Humidity;BMP_temperature;BMP_pressure;BME280_temperature;BME280_humidity;BME280_pressure;Samples;Min_cycle;Max_cycle;Signal;HPM_P1;HPM_P2
2021/06/29 00:00:48;;;;;;;4.77;2.13;;;24.50;71.40;;;;;;5063972;28;20275;-68
2021/06/29 00:03:16;;;;;;;6.30;2.10;;;24.50;71.70;;;;;;5064235;28;20214;-68
2021/06/29 00:05:46;;;;;;;3.10;1.80;;;24.50;72.00;;;;;;5064039;28;20213;-68
2021/06/29 00:08:14;;;;;;;8.67;2.23;;;24.50;72.00;;;;;;5064145;28;20213;-68
2021/06/29 00:10:42;;;;;;;4.67;2.27;;;24.50;71.90;;;;;;5062463;28;20206;-68
2021/06/29 00:13:09;;;;;;;2.83;2.20;;;24.50;72.70;;;;;;5065101;28;20255;-68
2021/06/29 00:15:37;;;;;;;6.03;2.17;;;24.50;72.30;;;;;;5061117;28;20295;-68
2021/06/29 00:18:04;;;;;;;12.27;3.17;;;24.50;72.50;;;;;;5062898;28;20745;-68
2021/06/29 00:20:32;;;;;;;5.63;2.53;;;24.50;72.80;;;;;;5063431;28;20299;-68
2021/06/29 00:22:59;;;;;;;3.77;2.70;;;24.40;73.10;;;;;;5060854;28;20276;-68
2021/06/29 00:25:26;;;;;;;7.37;3.00;;;24.40;73.30;;;;;;5062728;28;20662;-68
2021/06/29 00:27:53;;;;;;;3.23;1.90;;;24.40;73.40;;;;;;5063452;28;20585;-68
2021/06/29 00:30:20;;;;;;;5.00;2.30;;;24.30;73.30;;;;;;5061022;28;20280;-68
2021/06/29 00:32:47;;;;;;;4.20;2.40;;;24.30;73.20;;;;;;5062544;28;20718;-68
2021/06/29 00:35:15;;;;;;;11.83;2.27;;;24.30;73.20;;;;;;5063374;28;20220;-68
2021/06/29 00:37:43;;;;;;;6.47;3.13;;;24.30;73.50;;;;;;5060951;28;20211;-68
2021/06/29 00:40:12;;;;;;;6.03;2.90;;;24.20;73.70;;;;;;5062500;28;20225;-68
2021/06/29 00:42:40;;;;;;;5.70;2.53;;;24.10;74.20;;;;;;5063896;28;20214;-68
2021/06/29 00:45:08;;;;;;;5.17;2.50;;;24.10;74.50;;;;;;5061247;28;20206;-68
2021/06/29 00:47:35;;;;;;;5.20;2.20;;;24.00;74.90;;;;;;5062475;28;20215;-68
2021/06/29 00:50:05;;;;;;;3.50;2.60;;;24.00;74.90;;;;;;5067538;28;20275;-68
2021/06/29 00:52:32;;;;;;;3.53;2.27;;;24.00;74.80;;;;;;5065423;28;20249;-69
2021/06/29 00:55:00;;;;;;;7.30;2.50;;;24.00;74.70;;;;;;5064970;28;20637;-69
2021/06/29 00:57:27;;;;;;;5.33;2.43;;;24.00;74.80;;;;;;5067240;28;20229;-69
2021/06/29 00:59:54;;;;;;;7.80;2.00;;;24.00;74.80;;;;;;5065557;28;20253;-68
2021/06/29 01:02:21;;;;;;;6.77;2.20;;;24.00;74.90;;;;;;5066015;28;20207;-68
2021/06/29 01:04:48;;;;;;;7.43;2.20;;;24.00;75.10;;;;;;5067050;28;20218;-68
2021/06/29 01:07:16;;;;;;;5.00;2.50;;;24.00;75.20;;;;;;5067745;28;20288;-68
2021/06/29 01:09:44;;;;;;;6.00;2.40;;;24.00;75.30;;;;;;5064839;28;20214;-69
2021/06/29 01:12:15;;;;;;;3.77;3.03;;;24.00;75.30;;;;;;5068465;28;20577;-69
2021/06/29 01:14:42;;;;;;;3.90;2.87;;;24.00;75.50;;;;;;5065764;28;20263;-69
2021/06/29 01:17:09;;;;;;;6.43;3.23;;;24.00;75.70;;;;;;5047012;28;20268;-69
2021/06/29 01:19:42;;;;;;;3.60;2.90;;;23.90;75.80;;;;;;5043415;28;20535;-69
2021/06/29 01:22:10;;;;;;;5.33;3.27;;;23.90;75.80;;;;;;5046607;28;20564;-69
2021/06/29 01:24:37;;;;;;;5.17;2.67;;;23.90;76.20;;;;;;5043795;28;20281;-68
2021/06/29 01:29:43;;;;;;;4.33;3.67;;;23.90;76.30;;;;;;5046571;28;20226;-68
2021/06/29 01:32:16;;;;;;;3.47;3.17;;;23.90;76.20;;;;;;5045238;28;20214;-68
2021/06/29 01:34:44;;;;;;;5.53;3.13;;;23.80;76.30;;;;;;5043836;28;20237;-68
2021/06/29 01:37:11;;;;;;;3.73;2.70;;;23.80;76.20;;;;;;5045491;28;20207;-68
2021/06/29 01:39:55;;;;;;;7.20;3.97;;;23.80;76.30;;;;;;5046019;28;20238;-68
2021/06/29 01:42:22;;;;;;;8.47;3.67;;;23.80;76.70;;;;;;5046104;28;20569;-68
2021/06/29 01:44:49;;;;;;;8.27;3.00;;;23.80;76.70;;;;;;5043769;28;20211;-68
2021/06/29 01:47:25;;;;;;;3.90;2.83;;;23.80;76.60;;;;;;5045521;28;20233;-68
2021/06/29 01:49:52;;;;;;;9.57;3.10;;;23.80;76.60;;;;;;5046418;28;20633;-68
2021/06/29 01:52:19;;;;;;;5.13;2.73;;;23.80;76.50;;;;;;5044081;28;20215;-68
2021/06/29 01:54:46;;;;;;;6.50;3.27;;;23.80;76.20;;;;;;5047630;28;20230;-68
2021/06/29 01:57:18;;;;;;;3.60;3.30;;;23.70;76.00;;;;;;5043323;28;20805;-68
2021/06/29 01:59:48;;;;;;;5.27;3.17;;;23.60;76.00;;;;;;5044027;28;20292;-68
2021/06/29 02:02:15;;;;;;;6.20;3.33;;;23.60;76.20;;;;;;5045999;28;20225;-68
2021/06/29 02:04:43;;;;;;;4.17;3.30;;;23.50;76.20;;;;;;5043768;28;20211;-68
2021/06/29 02:07:10;;;;;;;3.63;3.23;;;23.50;76.60;;;;;;5046707;28;20218;-69
2021/06/29 02:09:37;;;;;;;3.73;3.43;;;23.40;76.80;;;;;;5042995;28;20353;-68
2021/06/29 02:12:05;;;;;;;3.70;3.40;;;23.30;77.10;;;;;;5046997;28;20230;-68
2021/06/29 02:14:32;;;;;;;3.40;3.10;;;23.30;77.50;;;;;;5044170;28;20614;-68
2021/06/29 02:16:59;;;;;;;6.43;3.77;;;23.20;77.80;;;;;;5064318;28;20667;-68
2021/06/29 02:19:26;;;;;;;6.13;3.57;;;23.20;78.10;;;;;;5063524;28;20233;-68
2021/06/29 02:21:53;;;;;;;5.47;3.43;;;23.20;78.20;;;;;;5063878;28;20226;-69
2021/06/29 02:24:20;;;;;;;3.57;2.83;;;23.30;78.40;;;;;;5065465;28;20247;-69
2021/06/29 02:26:47;;;;;;;4.73;2.90;;;23.30;78.50;;;;;;5061346;28;20248;-69
2021/06/29 02:29:14;;;;;;;5.77;3.23;;;23.30;78.50;;;;;;5063599;28;20282;-69
2021/06/29 02:31:41;;;;;;;4.27;3.50;;;23.20;78.10;;;;;;5065913;28;20213;-69
2021/06/29 02:34:08;;;;;;;6.03;3.73;;;23.10;78.00;;;;;;5061062;28;20221;-69
2021/06/29 02:36:35;;;;;;;3.40;3.10;;;23.10;78.10;;;;;;5064520;28;20218;-69
2021/06/29 02:39:03;;;;;;;3.80;2.90;;;23.10;78.20;;;;;;5061833;28;20279;-69
2021/06/29 02:41:30;;;;;;;6.17;2.93;;;23.10;78.40;;;;;;5064962;28;20555;-69
2021/06/29 02:43:57;;;;;;;4.03;3.30;;;23.10;78.50;;;;;;5063858;28;20222;-69
2021/06/29 02:46:24;;;;;;;7.10;3.40;;;23.10;78.50;;;;;;5061873;28;20214;-69
2021/06/29 02:48:53;;;;;;;6.70;3.70;;;23.00;78.60;;;;;;5064868;28;20214;-69
2021/06/29 02:51:20;;;;;;;4.80;4.30;;;23.00;78.90;;;;;;5063654;28;20206;-69
2021/06/29 02:53:47;;;;;;;3.70;3.40;;;23.00;79.10;;;;;;5064227;28;20205;-69
2021/06/29 02:58:59;;;;;;;6.07;4.00;;;22.90;79.50;;;;;;5062610;28;20217;-69
2021/06/29 03:01:26;;;;;;;7.40;3.77;;;22.80;79.30;;;;;;5063500;28;20714;-69
2021/06/29 03:03:53;;;;;;;8.77;4.33;;;22.70;79.10;;;;;;5065162;28;20205;-69
2021/06/29 03:06:20;;;;;;;8.77;4.43;;;22.70;79.40;;;;;;5065723;28;20237;-69
2021/06/29 03:08:47;;;;;;;6.93;4.10;;;22.60;79.90;;;;;;5063244;28;20209;-69
2021/06/29 03:11:14;;;;;;;4.90;4.50;;;22.50;80.20;;;;;;5065189;28;20283;-68
2021/06/29 03:13:41;;;;;;;8.27;4.33;;;22.50;80.60;;;;;;5064985;28;20217;-68
2021/06/29 03:16:11;;;;;;;5.83;5.23;;;22.50;80.80;;;;;;5063510;28;20292;-68
2021/06/29 03:18:38;;;;;;;4.93;4.27;;;22.50;81.00;;;;;;5062095;28;20211;-68
2021/06/29 03:21:07;;;;;;;12.23;4.70;;;22.50;81.00;;;;;;5061599;28;20321;-68
2021/06/29 03:23:38;;;;;;;6.97;4.07;;;22.50;80.80;;;;;;5062405;28;20624;-68
2021/06/29 03:26:06;;;;;;;5.53;4.10;;;22.60;80.80;;;;;;5061912;28;20217;-68
2021/06/29 03:28:33;;;;;;;5.83;4.07;;;22.60;80.70;;;;;;5062982;28;20226;-68
2021/06/29 03:31:00;;;;;;;8.97;4.10;;;22.60;80.60;;;;;;5060879;28;20300;-68
2021/06/29 03:33:27;;;;;;;9.43;4.17;;;22.60;80.60;;;;;;5062024;28;20284;-68
2021/06/29 03:35:55;;;;;;;10.53;4.00;;;22.60;80.50;;;;;;5065263;28;20655;-68
2021/06/29 03:38:22;;;;;;;6.10;4.00;;;22.60;80.60;;;;;;5064250;28;20228;-68
2021/06/29 03:40:48;;;;;;;8.20;4.10;;;22.50;80.60;;;;;;5065381;28;20249;-68
2021/06/29 03:43:16;;;;;;;6.30;4.47;;;22.50;80.70;;;;;;5062917;28;20221;-68
2021/06/29 03:45:43;;;;;;;10.37;4.73;;;22.50;80.70;;;;;;5064206;28;20271;-68
2021/06/29 03:48:10;;;;;;;6.50;4.20;;;22.50;80.70;;;;;;5061945;28;20217;-68
2021/06/29 03:50:37;;;;;;;8.60;4.73;;;22.50;80.80;;;;;;5062897;28;20217;-68
2021/06/29 03:53:04;;;;;;;9.70;4.47;;;22.60;80.70;;;;;;5064197;28;20624;-68
2021/06/29 03:55:31;;;;;;;5.53;4.37;;;22.60;80.60;;;;;;5061387;28;20276;-68
2021/06/29 03:57:58;;;;;;;8.20;4.83;;;22.60;80.60;;;;;;5062865;28;20217;-68
2021/06/29 04:00:25;;;;;;;8.63;4.70;;;22.60;80.60;;;;;;5063877;28;20245;-68
2021/06/29 04:02:52;;;;;;;6.93;4.70;;;22.60;80.50;;;;;;5064093;28;20283;-68
2021/06/29 04:05:19;;;;;;;10.87;5.33;;;22.60;80.40;;;;;;5064360;28;20221;-68
2021/06/29 04:07:47;;;;;;;7.83;4.70;;;22.50;80.40;;;;;;5061530;28;20748;-68
2021/06/29 04:10:14;;;;;;;5.73;4.93;;;22.50;80.40;;;;;;5061490;28;20296;-68
2021/06/29 04:12:41;;;;;;;6.57;5.03;;;22.50;80.50;;;;;;5065337;28;20210;-68
2021/06/29 04:15:10;;;;;;;5.57;5.07;;;22.50;80.50;;;;;;5063684;28;20282;-68
2021/06/29 04:17:37;;;;;;;6.40;4.90;;;22.50;80.50;;;;;;5061452;28;20762;-68
2021/06/29 04:20:08;;;;;;;6.43;4.37;;;22.70;80.50;;;;;;5062614;28;20241;-68
2021/06/29 04:22:36;;;;;;;8.73;5.53;;;22.70;80.30;;;;;;5064905;28;20210;-68
2021/06/29 04:25:04;;;;;;;5.53;4.87;;;22.80;80.10;;;;;;5067265;28;20217;-69
2021/06/29 04:27:32;;;;;;;5.53;5.03;;;22.90;79.90;;;;;;5067270;28;20228;-69
2021/06/29 04:29:59;;;;;;;8.03;6.00;;;23.00;79.70;;;;;;5065264;28;20630;-69
2021/06/29 04:32:26;;;;;;;9.77;5.73;;;23.10;79.50;;;;;;5066692;28;20229;-69
2021/06/29 04:34:53;;;;;;;7.03;6.33;;;23.10;79.30;;;;;;5063982;28;20279;-69
2021/06/29 04:37:20;;;;;;;9.13;6.20;;;23.20;79.10;;;;;;5068980;28;20218;-69
2021/06/29 04:39:47;;;;;;;7.87;7.03;;;23.30;79.00;;;;;;5068515;28;20680;-69
2021/06/29 04:42:14;;;;;;;11.10;6.40;;;23.40;78.80;;;;;;5065223;28;20280;-69
2021/06/29 04:44:41;;;;;;;13.43;6.43;;;23.50;78.50;;;;;;5067838;28;20233;-69
2021/06/29 04:47:09;;;;;;;6.60;6.10;;;23.60;78.20;;;;;;5065804;28;20225;-69
2021/06/29 04:49:37;;;;;;;7.77;6.30;;;23.70;77.90;;;;;;5066875;28;20220;-69
2021/06/29 04:52:05;;;;;;;8.03;5.80;;;23.80;77.50;;;;;;5067519;28;20689;-69
2021/06/29 04:54:32;;;;;;;12.77;7.17;;;23.90;77.30;;;;;;5065934;28;20543;-69
2021/06/29 04:56:59;;;;;;;8.10;7.30;;;24.00;77.00;;;;;;5065193;28;20246;-69
2021/06/29 04:59:26;;;;;;;7.80;7.00;;;24.10;76.60;;;;;;5067411;28;20297;-69
2021/06/29 05:01:53;;;;;;;9.03;6.80;;;24.20;76.40;;;;;;5065750;28;20210;-69
2021/06/29 05:04:20;;;;;;;9.40;6.53;;;24.30;76.30;;;;;;5064832;28;20223;-69
2021/06/29 05:06:47;;;;;;;7.80;7.00;;;24.40;76.20;;;;;;5071047;28;20229;-69
2021/06/29 05:09:14;;;;;;;6.77;6.10;;;24.50;76.10;;;;;;5065759;28;20214;-69
2021/06/29 05:11:41;;;;;;;10.77;7.10;;;24.60;75.80;;;;;;5065391;28;20221;-69
2021/06/29 05:14:08;;;;;;;12.10;7.77;;;24.80;75.40;;;;;;5068417;28;20214;-69
2021/06/29 05:16:36;;;;;;;13.37;7.30;;;24.90;74.90;;;;;;5065842;28;20307;-69
2021/06/29 05:19:03;;;;;;;8.70;7.63;;;25.00;75.10;;;;;;5066691;28;20595;-69
2021/06/29 05:21:30;;;;;;;9.87;7.27;;;25.10;74.00;;;;;;5063920;28;20555;-69
2021/06/29 05:24:01;;;;;;;15.17;6.77;;;25.20;73.80;;;;;;5065461;28;20210;-69
2021/06/29 05:26:28;;;;;;;6.83;6.20;;;25.40;73.60;;;;;;5066953;28;20209;-69
2021/06/29 05:28:55;;;;;;;7.97;7.17;;;25.50;73.30;;;;;;5064571;28;20756;-69
2021/06/29 05:31:22;;;;;;;9.60;6.80;;;25.60;72.90;;;;;;5065129;28;20224;-69
2021/06/29 05:33:50;;;;;;;9.93;6.53;;;25.70;72.50;;;;;;5066365;28;20224;-69
2021/06/29 05:36:17;;;;;;;9.60;6.47;;;25.80;72.10;;;;;;5066050;28;20214;-69
2021/06/29 05:38:44;;;;;;;7.77;6.80;;;26.00;71.80;;;;;;5064904;28;20213;-69
2021/06/29 05:41:11;;;;;;;8.03;6.23;;;26.30;71.20;;;;;;5066235;28;20234;-69
2021/06/29 05:43:38;;;;;;;7.87;6.30;;;26.50;70.30;;;;;;5064027;28;20224;-69
2021/06/29 05:46:05;;;;;;;10.10;6.60;;;26.70;69.70;;;;;;5065191;28;20221;-69
2021/06/29 05:48:33;;;;;;;8.53;5.47;;;26.90;68.90;;;;;;5065486;28;20287;-69
2021/06/29 05:51:02;;;;;;;10.80;5.23;;;27.10;68.40;;;;;;5063960;28;20684;-70
2021/06/29 05:53:30;;;;;;;6.93;5.23;;;27.30;67.80;;;;;;5064542;28;20222;-69
2021/06/29 05:55:58;;;;;;;8.03;5.37;;;27.50;67.30;;;;;;5066438;28;20225;-69
2021/06/29 05:58:25;;;;;;;8.93;5.57;;;27.70;66.80;;;;;;5064264;28;20636;-69
2021/06/29 06:00:53;;;;;;;10.90;5.00;;;27.80;66.10;;;;;;5064293;28;20242;-69
2021/06/29 06:03:20;;;;;;;7.60;6.20;;;27.90;65.70;;;;;;5066309;28;20206;-69
2021/06/29 06:05:47;;;;;;;8.90;5.17;;;28.10;65.20;;;;;;5066067;28;20210;-69
2021/06/29 06:08:14;;;;;;;12.83;6.07;;;28.20;64.80;;;;;;5065336;28;20627;-69
2021/06/29 06:10:42;;;;;;;8.60;5.27;;;28.30;64.10;;;;;;5063035;28;20751;-69
2021/06/29 06:13:09;;;;;;;16.80;5.37;;;28.40;64.20;;;;;;5065333;28;20213;-69
2021/06/29 06:15:37;;;;;;;8.43;5.77;;;28.50;63.70;;;;;;5065197;28;20253;-69
2021/06/29 06:18:05;;;;;;;7.83;5.60;;;28.60;62.90;;;;;;5062933;28;20280;-69
2021/06/29 06:20:34;;;;;;;11.20;5.37;;;28.70;62.90;;;;;;5064480;28;20666;-69
2021/06/29 06:23:03;;;;;;;11.40;4.70;;;28.90;62.80;;;;;;5065552;28;20229;-69
2021/06/29 06:25:30;;;;;;;9.40;5.00;;;28.90;62.40;;;;;;5063151;28;20221;-69
2021/06/29 06:27:58;;;;;;;15.13;5.13;;;29.10;62.30;;;;;;5064112;28;20594;-69
2021/06/29 06:30:25;;;;;;;7.27;4.73;;;29.20;62.00;;;;;;5065506;28;20213;-69
2021/06/29 06:32:52;;;;;;;8.47;4.73;;;29.50;61.50;;;;;;5063345;28;20226;-69
2021/06/29 06:35:19;;;;;;;7.27;4.00;;;29.60;60.70;;;;;;5066520;28;20255;-69
2021/06/29 06:37:46;;;;;;;6.53;3.30;;;29.80;60.60;;;;;;5062520;28;20291;-69
2021/06/29 06:40:14;;;;;;;7.50;4.30;;;29.90;60.00;;;;;;5064947;28;20279;-69
2021/06/29 06:42:41;;;;;;;8.20;3.93;;;30.10;59.50;;;;;;5064045;28;20212;-69
2021/06/29 06:45:09;;;;;;;5.03;3.50;;;30.30;59.20;;;;;;5062515;28;20237;-69
2021/06/29 06:47:36;;;;;;;10.30;3.53;;;30.40;58.90;;;;;;5064632;28;20206;-69
2021/06/29 06:50:06;;;;;;;8.27;3.13;;;30.60;58.40;;;;;;5066171;28;20813;-69
2021/06/29 06:52:37;;;;;;;5.07;3.47;;;30.70;58.40;;;;;;5062341;28;20214;-69
2021/06/29 06:55:06;;;;;;;8.03;3.40;;;31.00;58.30;;;;;;5063821;28;20210;-69
2021/06/29 06:57:33;;;;;;;3.93;2.87;;;31.20;57.60;;;;;;5064005;28;20262;-69
2021/06/29 07:00:00;;;;;;;9.57;3.87;;;31.40;57.10;;;;;;5061357;28;20245;-69
2021/06/29 07:02:27;;;;;;;8.57;3.27;;;31.50;56.50;;;;;;5063422;28;20265;-69
2021/06/29 07:04:54;;;;;;;11.07;3.43;;;31.30;56.70;;;;;;5062531;28;20316;-69
2021/06/29 07:07:21;;;;;;;7.10;3.77;;;31.30;57.10;;;;;;5065014;28;20209;-69
2021/06/29 07:09:48;;;;;;;4.20;3.00;;;31.20;56.90;;;;;;5063555;28;20225;-69
2021/06/29 07:12:16;;;;;;;4.57;3.40;;;31.20;56.70;;;;;;5065544;28;20873;-69
2021/06/29 07:14:42;;;;;;;16.43;4.37;;;31.30;56.50;;;;;;5062151;28;20225;-69
2021/06/29 07:17:09;;;;;;;5.10;3.20;;;31.30;56.80;;;;;;5065553;28;20667;-69
2021/06/29 07:19:36;;;;;;;6.83;3.13;;;31.30;56.90;;;;;;5062265;28;20229;-69
2021/06/29 07:22:03;;;;;;;4.57;3.40;;;31.30;56.30;;;;;;5060766;28;20238;-69
2021/06/29 07:24:30;;;;;;;6.87;3.57;;;31.30;56.90;;;;;;5063355;28;20207;-69
2021/06/29 07:26:58;;;;;;;6.07;3.60;;;31.20;56.40;;;;;;5062024;28;20264;-69
2021/06/29 07:29:25;;;;;;;7.80;3.23;;;31.20;56.90;;;;;;5060685;28;20224;-69
2021/06/29 07:31:52;;;;;;;12.67;2.70;;;31.30;56.20;;;;;;5063244;28;20225;-69
2021/06/29 07:34:20;;;;;;;9.30;2.67;;;31.30;56.60;;;;;;5062038;28;20220;-69
2021/06/29 07:36:47;;;;;;;6.00;2.50;;;31.40;56.40;;;;;;5064602;28;20240;-69
2021/06/29 07:39:14;;;;;;;8.67;2.87;;;31.60;56.30;;;;;;5062819;28;20222;-69
2021/06/29 07:41:41;;;;;;;7.30;3.07;;;31.80;55.10;;;;;;5061792;28;20240;-69
2021/06/29 07:44:09;;;;;;;4.03;2.20;;;31.90;55.20;;;;;;5061735;28;20218;-69
2021/06/29 07:46:36;;;;;;;6.77;2.57;;;32.10;55.60;;;;;;5061592;28;20210;-69
2021/06/29 07:49:04;;;;;;;4.83;2.30;;;32.40;54.50;;;;;;5065629;28;20531;-69
2021/06/29 07:51:31;;;;;;;4.63;1.90;;;32.60;54.60;;;;;;5062524;28;20219;-69
2021/06/29 07:53:59;;;;;;;8.30;2.10;;;32.90;53.70;;;;;;5063475;28;20854;-69
2021/06/29 07:56:27;;;;;;;3.40;2.10;;;33.20;53.00;;;;;;5065364;28;20209;-69
2021/06/29 07:58:54;;;;;;;12.83;2.83;;;33.50;51.80;;;;;;5061354;28;20206;-69
2021/06/29 08:01:21;;;;;;;9.40;3.00;;;33.80;51.80;;;;;;5063095;28;20709;-69
2021/06/29 08:03:49;;;;;;;6.20;2.67;;;34.00;51.50;;;;;;5065594;28;20213;-69
2021/06/29 08:06:16;;;;;;;8.33;2.30;;;34.30;50.50;;;;;;5064734;28;20203;-69
2021/06/29 08:08:43;;;;;;;6.13;2.27;;;34.40;50.00;;;;;;5062832;28;20225;-69
2021/06/29 08:11:11;;;;;;;8.97;2.60;;;34.50;46.90;;;;;;5064033;28;20214;-69
2021/06/29 08:13:38;;;;;;;9.43;2.20;;;34.50;46.90;;;;;;5064149;28;20213;-69
2021/06/29 08:16:08;;;;;;;5.93;1.93;;;34.50;46.60;;;;;;5063170;28;20475;-69
2021/06/29 08:18:37;;;;;;;2.20;1.70;;;34.40;46.20;;;;;;5060973;28;20215;-69
2021/06/29 08:21:05;;;;;;;3.60;1.87;;;34.40;44.80;;;;;;5062615;28;20245;-69
2021/06/29 08:23:32;;;;;;;3.53;1.47;;;34.30;45.30;;;;;;5063764;28;20210;-69
2021/06/29 08:26:00;;;;;;;4.67;1.63;;;34.20;41.90;;;;;;5063937;28;20236;-69
2021/06/29 08:28:28;;;;;;;7.47;1.97;;;34.30;41.40;;;;;;5060032;28;20826;-69
2021/06/29 08:30:55;;;;;;;7.53;2.07;;;34.30;42.00;;;;;;5063855;28;20209;-69
2021/06/29 08:33:22;;;;;;;5.27;1.93;;;34.40;42.40;;;;;;5063946;28;20252;-69
2021/06/29 08:35:51;;;;;;;5.60;1.97;;;34.40;42.20;;;;;;5064096;28;20224;-69
2021/06/29 08:38:20;;;;;;;7.97;2.40;;;34.40;42.90;;;;;;5063943;28;20548;-69
2021/06/29 08:40:47;;;;;;;4.80;1.90;;;34.40;43.00;;;;;;5061649;28;20246;-69
2021/06/29 08:43:15;;;;;;;13.47;2.63;;;34.20;42.10;;;;;;5061759;28;20217;-69
2021/06/29 08:45:44;;;;;;;6.03;2.10;;;33.90;43.30;;;;;;5063818;28;20225;-69
2021/06/29 08:48:12;;;;;;;4.70;2.03;;;33.70;43.40;;;;;;5061885;28;20234;-69
2021/06/29 08:50:40;;;;;;;5.10;1.80;;;33.80;43.50;;;;;;5061238;28;20819;-69
2021/06/29 08:53:10;;;;;;;6.93;2.43;;;33.90;42.90;;;;;;5063868;28;20296;-69
2021/06/29 08:55:41;;;;;;;11.70;1.90;;;34.00;42.90;;;;;;5065009;28;20293;-69
2021/06/29 08:58:09;;;;;;;7.80;2.33;;;34.30;41.90;;;;;;5060894;28;20206;-69
2021/06/29 09:00:37;;;;;;;7.33;2.30;;;34.50;40.30;;;;;;5062621;28;20250;-69
2021/06/29 09:03:05;;;;;;;8.10;2.23;;;34.40;41.10;;;;;;5059706;28;20674;-69
2021/06/29 09:05:33;;;;;;;12.87;3.00;;;34.40;41.50;;;;;;5063564;28;20210;-69
2021/06/29 09:08:07;;;;;;;12.70;2.50;;;34.50;42.40;;;;;;5062260;28;20606;-69
2021/06/29 09:10:36;;;;;;;7.37;2.50;;;34.70;41.30;;;;;;5063949;28;20220;-69
2021/06/29 09:13:05;;;;;;;4.77;2.07;;;34.80;42.00;;;;;;5069781;28;20206;-69
2021/06/29 09:15:46;;;;;;;16.17;2.67;;;34.90;40.70;;;;;;5066938;28;20237;-69
2021/06/29 09:18:14;;;;;;;4.97;2.50;;;34.90;41.20;;;;;;5066169;28;20791;-69
2021/06/29 09:21:14;;;;;;;8.97;2.77;;;34.90;41.80;;;;;;5064306;28;20214;-69
2021/06/29 09:23:47;;;;;;;4.57;2.50;;;35.00;42.10;;;;;;5062754;28;20221;-69
2021/06/29 09:26:17;;;;;;;8.23;2.70;;;35.30;42.10;;;;;;5064116;28;20547;-69
2021/06/29 09:28:47;;;;;;;13.97;2.70;;;35.30;40.60;;;;;;5065154;28;20253;-69
2021/06/29 09:31:17;;;;;;;5.40;2.23;;;35.30;41.50;;;;;;5066749;28;20672;-69
2021/06/29 09:33:53;;;;;;;7.53;3.10;;;35.40;41.90;;;;;;5064970;28;20222;-71
2021/06/29 09:36:29;;;;;;;2.87;2.07;;;35.70;41.10;;;;;;5067730;28;20209;-69
2021/06/29 09:39:00;;;;;;;7.23;2.70;;;36.00;40.60;;;;;;5064343;28;20218;-69
2021/06/29 09:41:30;;;;;;;9.40;2.47;;;36.20;40.40;;;;;;5063980;28;20234;-69
2021/06/29 09:44:07;;;;;;;5.63;2.23;;;36.30;40.60;;;;;;5064757;28;20206;-69
2021/06/29 09:46:39;;;;;;;8.43;3.00;;;36.20;40.40;;;;;;5064597;28;20218;-69
2021/06/29 09:49:11;;;;;;;7.87;2.43;;;36.00;39.80;;;;;;5063564;28;20686;-69
2021/06/29 09:51:53;;;;;;;9.30;2.53;;;35.70;41.70;;;;;;5065103;28;20217;-69
2021/06/29 09:54:21;;;;;;;15.93;2.83;;;35.70;41.40;;;;;;5063703;28;20225;-69
2021/06/29 09:56:51;;;;;;;9.50;3.03;;;35.80;40.80;;;;;;5064197;28;20295;-69
2021/06/29 09:59:24;;;;;;;8.40;2.47;;;35.70;41.70;;;;;;5066783;28;20229;-69
2021/06/29 10:02:11;;;;;;;10.83;2.50;;;35.70;40.90;;;;;;5064993;28;20242;-70
2021/06/29 10:04:40;;;;;;;4.97;2.53;;;35.90;41.30;;;;;;5065065;28;20306;-69
2021/06/29 10:07:14;;;;;;;4.57;2.57;;;36.20;41.00;;;;;;5065928;28;20211;-69
2021/06/29 10:09:41;;;;;;;6.47;2.40;;;36.50;41.20;;;;;;5063991;28;20213;-69
2021/06/29 10:12:09;;;;;;;11.00;2.73;;;36.90;40.50;;;;;;5066215;28;20213;-69
2021/06/29 10:14:36;;;;;;;4.13;2.60;;;37.00;39.00;;;;;;5063484;28;20264;-69
2021/06/29 10:17:09;;;;;;;8.77;2.90;;;37.00;39.20;;;;;;5063892;28;20250;-69
2021/06/29 10:19:48;;;;;;;10.00;2.70;;;37.10;39.50;;;;;;5063086;28;20210;-69
2021/06/29 10:22:18;;;;;;;10.40;2.83;;;37.20;39.60;;;;;;5062278;28;20241;-69
2021/06/29 10:24:47;;;;;;;7.20;2.30;;;37.40;39.50;;;;;;5063039;28;20245;-69
2021/06/29 10:27:14;;;;;;;7.60;2.67;;;37.50;38.70;;;;;;5063610;28;20207;-69
2021/06/29 10:29:42;;;;;;;8.53;2.27;;;37.60;38.30;;;;;;5065730;28;20214;-69
2021/06/29 10:32:11;;;;;;;9.10;2.70;;;37.70;38.00;;;;;;5063678;28;20218;-69
2021/06/29 10:34:39;;;;;;;14.97;3.23;;;37.80;38.10;;;;;;5063490;28;20234;-69
2021/06/29 10:37:07;;;;;;;8.13;3.10;;;38.00;38.80;;;;;;5064888;28;20214;-69
2021/06/29 10:39:36;;;;;;;7.07;2.93;;;38.20;38.10;;;;;;5063937;28;20213;-69
2021/06/29 10:42:13;;;;;;;9.30;2.67;;;38.30;36.70;;;;;;5065415;28;20575;-69
2021/06/29 10:44:46;;;;;;;11.00;2.97;;;38.40;37.40;;;;;;5063324;28;20221;-69
2021/06/29 10:47:30;;;;;;;9.43;3.20;;;38.50;37.10;;;;;;5065374;28;20217;-69
2021/06/29 10:50:01;;;;;;;12.90;2.90;;;38.50;37.40;;;;;;5062394;28;20218;-69
2021/06/29 10:52:31;;;;;;;15.43;2.87;;;38.60;36.80;;;;;;5062583;28;20256;-69
2021/06/29 10:55:23;;;;;;;9.50;2.60;;;38.70;36.50;;;;;;5066107;28;20462;-69
2021/06/29 10:57:54;;;;;;;9.70;2.97;;;38.90;36.40;;;;;;5060476;28;20218;-69
2021/06/29 11:00:21;;;;;;;14.87;3.03;;;38.90;36.00;;;;;;5064426;28;20217;-69
2021/06/29 11:03:08;;;;;;;7.93;3.23;;;38.80;35.80;;;;;;5061876;28;20699;-69
2021/06/29 11:05:40;;;;;;;11.07;2.47;;;38.50;35.80;;;;;;5065113;28;20284;-69
2021/06/29 11:08:10;;;;;;;13.27;3.47;;;38.40;36.00;;;;;;5064013;28;20218;-69
2021/06/29 11:10:40;;;;;;;15.43;3.53;;;38.30;35.30;;;;;;5062110;28;20206;-69
2021/06/29 11:13:09;;;;;;;7.03;2.73;;;38.20;35.00;;;;;;5063846;28;20503;-69
2021/06/29 11:15:50;;;;;;;11.80;3.07;;;38.10;35.20;;;;;;5064493;28;20256;-69
2021/06/29 11:18:20;;;;;;;17.90;3.10;;;38.20;35.30;;;;;;5064279;28;20283;-69
2021/06/29 11:20:54;;;;;;;9.50;2.60;;;38.20;35.10;;;;;;5061060;28;20213;-69
2021/06/29 11:23:25;;;;;;;9.70;2.60;;;38.30;35.60;;;;;;5063794;28;20238;-69
2021/06/29 11:26:13;;;;;;;13.03;3.10;;;38.40;35.80;;;;;;5062273;28;20225;-69
2021/06/29 11:29:07;;;;;;;10.10;3.10;;;38.40;35.60;;;;;;5064356;28;20609;-69
2021/06/29 11:31:35;;;;;;;10.47;2.67;;;38.50;35.20;;;;;;5063748;28;20218;-69
2021/06/29 11:34:12;;;;;;;14.10;2.80;;;38.50;35.10;;;;;;5060742;28;20214;-69
2021/06/29 11:36:45;;;;;;;11.87;3.80;;;38.40;34.50;;;;;;5063091;28;20811;-69
2021/06/29 11:39:15;;;;;;;9.57;3.23;;;38.20;35.00;;;;;;5061767;28;20226;-69
2021/06/29 11:42:03;;;;;;;18.20;3.87;;;38.00;35.00;;;;;;5062525;28;20298;-69
2021/06/29 11:44:33;;;;;;;15.60;3.27;;;37.90;34.80;;;;;;5054550;28;20683;-69
2021/06/29 11:47:06;;;;;;;13.40;3.30;;;37.90;35.00;;;;;;5061469;28;20222;-69
2021/06/29 11:49:53;;;;;;;11.80;2.90;;;37.90;34.80;;;;;;5062550;28;20218;-69
2021/06/29 11:52:21;;;;;;;17.70;3.73;;;38.00;34.20;;;;;;5064585;28;20228;-69
2021/06/29 11:54:59;;;;;;;12.20;3.20;;;38.00;34.20;;;;;;5064371;28;20653;-69
2021/06/29 11:57:46;;;;;;;13.30;3.07;;;38.00;33.70;;;;;;5063943;28;20814;-69
2021/06/29 12:00:22;;;;;;;11.37;3.20;;;38.10;33.80;;;;;;5059431;28;20221;-69
2021/06/29 12:02:52;;;;;;;13.20;2.93;;;38.20;33.40;;;;;;5062999;28;20234;-69
2021/06/29 12:05:27;;;;;;;9.40;3.17;;;38.20;33.60;;;;;;5064879;28;20279;-69
2021/06/29 12:08:02;;;;;;;9.70;2.77;;;38.20;33.40;;;;;;5061627;28;20213;-69
2021/06/29 12:10:50;;;;;;;10.93;2.80;;;38.10;33.70;;;;;;5061422;28;20232;-69
2021/06/29 12:13:21;;;;;;;9.47;3.73;;;38.10;34.20;;;;;;5062298;28;20209;-69
2021/06/29 12:15:53;;;;;;;6.60;2.83;;;38.00;34.00;;;;;;5061313;28;20246;-69
2021/06/29 12:18:28;;;;;;;12.77;2.70;;;37.90;34.70;;;;;;5061632;28;20222;-69
2021/06/29 12:20:58;;;;;;;11.27;3.27;;;37.80;34.80;;;;;;5061187;28;20221;-69
2021/06/29 12:23:30;;;;;;;9.77;3.33;;;37.70;34.40;;;;;;5064014;28;20236;-69
2021/06/29 12:25:59;;;;;;;14.60;3.50;;;37.50;34.50;;;;;;5063644;28;20221;-69
2021/06/29 12:28:38;;;;;;;12.10;3.50;;;37.30;35.10;;;;;;5061454;28;20210;-69
2021/06/29 12:31:08;;;;;;;13.67;3.20;;;37.30;35.60;;;;;;5061082;28;20244;-69
2021/06/29 12:33:45;;;;;;;12.93;3.50;;;37.30;35.60;;;;;;5062805;28;20232;-69
2021/06/29 12:36:14;;;;;;;16.37;2.90;;;37.20;35.70;;;;;;5064770;28;20218;-69
2021/06/29 12:38:43;;;;;;;11.07;3.43;;;37.20;36.10;;;;;;5060947;28;20218;-69
2021/06/29 12:41:22;;;;;;;10.47;3.77;;;37.10;36.30;;;;;;5062783;28;20206;-69
2021/06/29 12:44:04;;;;;;;9.30;3.00;;;37.10;38.00;;;;;;5062288;28;20241;-69
2021/06/29 12:46:33;;;;;;;13.23;3.30;;;37.00;36.40;;;;;;5066330;28;20268;-69
2021/06/29 12:49:15;;;;;;;13.93;4.00;;;36.90;36.70;;;;;;5064703;28;20221;-69
2021/06/29 12:51:49;;;;;;;8.13;3.03;;;36.80;35.70;;;;;;5065030;28;20219;-69
2021/06/29 12:54:18;;;;;;;17.27;3.87;;;37.00;35.00;;;;;;5065591;28;20275;-69
2021/06/29 12:56:48;;;;;;;7.73;3.00;;;37.10;34.30;;;;;;5065045;28;20226;-69
2021/06/29 12:59:19;;;;;;;10.93;3.07;;;37.20;35.60;;;;;;5064810;28;20214;-69
2021/06/29 13:01:52;;;;;;;14.93;3.20;;;37.30;35.00;;;;;;5064426;28;20216;-69